Latest Weather Observations for Minnipa RS

IDS60801

Issued at 11:31 pm CST Monday 30 May 2016 (issued every 30 minutes, with the page automatically refreshed every 10 minutes)

About weather observations | Map of weather stations | Latest weather observations for SA | Other Formats
Station Details ID: 018195 Name: MINNIPA PIRSA Lat: -32.84 Lon: 135.15 Height: 165.0 m
Data from the previous 72 hours. | See also: Recent months at Minnipa RS
Date/Time
CST
Temp
°C
App
Temp
°C
Dew
Point
Rel
Hum
%
Delta-T
°C
Wind Press
QNH
hPa
Press
MSL
hPa
Rain
since 9 am
mm
Dir
 
Spd
km/h
Gust
km/h
Spd
kts
Gust
kts
30/11:30pm 11.2 9.4 9.6 90 0.8 N 9 9 5 5 1020.9 - 0.0
30/11:00pm 11.1 9.3 9.5 90 0.8 N 9 9 5 5 1020.8 - 0.0
30/10:30pm 11.4 9.9 9.3 87 1.1 NNW 7 9 4 5 1020.7 - 0.0
30/10:00pm 11.7 10.2 9.3 85 1.2 NW 7 9 4 5 1020.7 - 0.0
30/09:30pm 11.7 10.2 9.3 85 1.2 WNW 7 9 4 5 1020.7 - 0.0
30/09:00pm 11.9 10.1 9.5 85 1.2 WNW 9 9 5 5 1020.5 1020.4 0.0
30/08:30pm 12.0 10.5 9.0 82 1.5 WNW 7 9 4 5 1020.4 - 0.0
30/08:00pm 12.0 10.1 9.2 83 1.4 WNW 9 9 5 5 1020.3 - 0.0
30/07:30pm 11.9 9.9 8.7 81 1.6 W 9 9 5 5 1019.9 - 0.0
30/07:00pm 12.5 11.2 9.1 80 1.7 WNW 6 7 3 4 1019.7 - 0.0
30/06:30pm 13.0 12.8 9.1 77 2.0 CALM 0 4 0 2 1019.5 - 0.0
30/06:00pm 14.1 12.3 9.5 74 2.4 W 9 11 5 6 1019.1 1019.0 0.0
30/05:30pm 15.3 13.1 9.2 67 3.2 W 11 15 6 8 1018.8 - 0.0
30/05:00pm 16.6 13.5 8.8 60 4.0 WNW 15 19 8 10 1018.3 - 0.0
30/04:30pm 17.3 14.2 9.0 58 4.3 WNW 15 20 8 11 1017.8 - 0.0
30/04:00pm 17.3 13.9 9.2 59 4.2 WNW 17 20 9 11 1017.5 - 0.0
30/03:30pm 17.5 13.3 8.1 54 4.8 WNW 20 28 11 15 1017.2 - 0.0
30/03:00pm 18.9 14.3 8.0 49 5.6 NNW 22 28 12 15 1017.0 1016.9 0.0
30/02:30pm 18.6 14.5 8.8 53 5.1 WNW 20 30 11 16 1016.9 - 0.0
30/02:00pm 17.6 13.6 9.2 58 4.4 NNW 20 28 11 15 1017.1 - 0.0
30/01:30pm 16.7 13.4 9.6 63 3.7 WNW 17 24 9 13 1017.2 - 0.0
30/01:00pm 16.8 13.0 9.2 61 4.0 NNW 19 26 10 14 1017.6 - 0.0
30/12:30pm 16.7 13.2 10.1 65 3.5 NW 19 22 10 12 1018.0 - 0.0
30/12:00pm 16.2 12.8 10.5 69 3.0 NW 19 22 10 12 1018.4 1018.3 0.0
30/11:30am 16.6 14.2 11.5 72 2.8 NNW 15 22 8 12 1018.8 - 0.0
30/11:00am 15.7 13.8 11.9 78 2.1 N 13 19 7 10 1019.1 - 0.0
30/10:30am 15.0 13.2 12.0 82 1.6 N 13 19 7 10 1019.2 - 0.0
30/10:00am 14.0 11.8 10.8 81 1.7 N 13 17 7 9 1019.3 - 0.0
30/09:30am 13.3 11.6 11.2 87 1.1 N 11 15 6 8 1019.3 - 0.0
30/09:00am 13.2 12.4 11.1 87 1.1 SSE 6 9 3 5 1019.0 1018.9 0.4
30/08:30am 12.0 9.7 10.6 91 0.7 N 13 17 7 9 1018.9 - 0.4
30/08:00am 10.7 9.0 9.8 94 0.5 NNW 9 13 5 7 1018.7 - 0.2
30/07:30am 10.7 7.5 9.8 94 0.5 N 17 20 9 11 1018.4 - 0.2
30/07:00am 10.7 7.8 9.8 94 0.5 N 15 19 8 10 1017.8 - 0.2
30/06:30am 10.8 8.0 9.9 94 0.5 N 15 17 8 9 1017.3 - 0.2
30/06:00am 11.3 8.2 10.4 94 0.5 N 17 20 9 11 1017.1 1017.0 0.2
30/05:30am 11.5 8.4 10.2 92 0.7 N 17 22 9 12 1016.6 - 0.2
30/05:00am 11.4 8.4 9.3 87 1.1 N 15 19 8 10 1016.5 - 0.2
30/04:30am 11.1 7.7 9.0 87 1.1 N 17 20 9 11 1016.1 - 0.2
30/04:00am 11.3 8.7 9.2 87 1.1 N 13 17 7 9 1015.9 - 0.2
30/03:30am 11.6 8.9 8.8 83 1.4 N 13 17 7 9 1015.9 - 0.2
30/03:00am 12.1 8.5 8.2 77 1.9 N 17 20 9 11 1015.7 1015.6 0.2
30/02:30am 12.4 8.0 7.3 71 2.5 N 20 24 11 13 1015.6 - 0.2
30/02:00am 12.8 8.3 7.0 68 2.8 N 20 26 11 14 1015.5 - 0.2
30/01:30am 12.5 8.0 6.8 68 2.8 N 20 26 11 14 1015.2 - 0.2
30/01:00am 13.2 8.9 6.8 65 3.1 N 19 28 10 15 1015.2 - 0.2
30/12:30am 13.5 8.5 6.6 63 3.3 N 22 32 12 17 1015.2 - 0.2
30/12:00am 14.2 9.3 7.0 62 3.5 NNE 22 30 12 16 1014.8 1014.7 0.2
 
Date/Time
CST
Temp
°C
App
Temp
°C
Dew
Point
Rel
Hum
%
Delta-T
°C
Wind Press
QNH
hPa
Press
MSL
hPa
Rain
since 9 am
mm
Dir
 
Spd
km/h
Gust
km/h
Spd
kts
Gust
kts
29/11:30pm 13.9 9.5 6.5 61 3.6 NNE 19 24 10 13 1015.1 - 0.2
29/11:00pm 13.9 9.3 6.3 60 3.7 NE 20 26 11 14 1015.2 - 0.2
29/10:30pm 14.0 9.0 6.6 61 3.6 NE 22 32 12 17 1015.3 - 0.2
29/10:00pm 13.7 9.2 6.8 63 3.4 NE 20 24 11 13 1015.6 - 0.2
29/09:30pm 13.4 9.5 7.0 65 3.1 NE 17 20 9 11 1015.8 - 0.2
29/09:00pm 13.5 9.5 6.6 63 3.3 NE 17 19 9 10 1015.7 1015.6 0.2
29/08:30pm 13.6 9.7 6.9 64 3.3 NNE 17 20 9 11 1015.8 - 0.2
29/08:00pm 14.3 9.8 7.1 62 3.5 NNE 20 24 11 13 1015.4 - 0.2
29/07:30pm 14.5 9.7 7.3 62 3.6 NNE 22 30 12 16 1015.2 - 0.2
29/07:00pm 15.0 9.6 7.8 62 3.6 NNE 26 32 14 17 1015.2 - 0.2
29/06:30pm 15.4 11.5 7.2 58 4.1 NNE 17 20 9 11 1015.9 - 0.2
29/06:00pm 15.2 11.3 7.0 58 4.1 NNE 17 19 9 10 1015.1 1015.0 0.2
29/05:30pm 16.0 12.5 7.0 55 4.5 NNE 15 19 8 10 1015.1 - 0.2
29/05:00pm 17.3 13.4 7.1 51 5.1 N 17 24 9 13 1014.8 - 0.2
29/04:30pm 18.3 13.7 6.5 46 5.9 N 20 28 11 15 1014.8 - 0.2
29/04:00pm 18.5 13.4 6.0 44 6.2 N 22 28 12 15 1014.7 - 0.2
29/03:30pm 19.0 13.9 5.8 42 6.5 N 22 30 12 16 1014.7 - 0.2
29/03:00pm 18.6 13.9 6.1 44 6.2 N 20 26 11 14 1015.1 1015.0 0.2
29/02:30pm 18.7 13.6 6.2 44 6.2 N 22 30 12 16 1015.2 - 0.2
29/02:00pm 18.4 13.6 7.2 48 5.7 N 22 30 12 16 1015.2 - 0.2
29/01:30pm 17.7 12.7 6.6 48 5.5 N 22 30 12 16 1015.6 - 0.2
29/01:00pm 17.0 11.7 6.8 51 5.1 N 24 32 13 17 1016.2 - 0.0
29/12:30pm 16.7 11.9 8.7 59 4.1 N 24 33 13 18 1016.5 - 0.0
29/12:00pm 16.0 10.0 7.2 56 4.4 N 28 33 15 18 1017.1 1017.0 0.0
29/11:30am 15.4 9.4 7.2 58 4.1 N 28 37 15 20 1017.6 - 0.0
29/11:00am 14.9 9.0 7.5 61 3.7 N 28 35 15 19 1017.8 - 0.0
29/10:30am 14.3 9.2 7.6 64 3.3 N 24 33 13 18 1018.2 - 0.0
29/10:00am 13.4 8.8 8.0 70 2.7 N 22 28 12 15 1018.1 - 0.0
29/09:30am 12.6 8.5 8.7 77 2.0 N 20 28 11 15 1018.2 - 0.0
29/09:00am 11.7 7.7 8.2 79 1.7 NNE 19 24 10 13 1018.1 1017.9 0.0
29/08:30am 10.5 6.4 7.9 84 1.3 NNE 19 22 10 12 1017.9 - 0.0
29/08:00am 9.9 5.8 7.8 87 1.0 NNE 19 24 10 13 1017.7 - 0.0
29/07:30am 9.9 5.8 8.0 88 0.9 NNE 19 22 10 12 1017.7 - 0.0
29/07:00am 9.9 5.8 7.8 87 1.0 NE 19 24 10 13 1017.6 - 0.0
29/06:30am 10.1 6.0 8.0 87 1.0 NNE 19 22 10 12 1017.3 - 0.0
29/06:00am 10.0 5.9 7.9 87 1.0 NE 19 22 10 12 1017.3 1017.2 0.0
29/05:30am 10.0 6.0 8.1 88 0.9 NNE 19 20 10 11 1017.2 - 0.0
29/05:00am 9.5 5.8 7.9 90 0.8 NE 17 20 9 11 1016.9 - 0.0
29/04:30am 9.5 5.9 8.3 92 0.6 NE 17 20 9 11 1017.0 - 0.0
29/04:00am 9.5 6.0 8.6 94 0.4 NE 17 20 9 11 1017.1 - 0.0
29/03:30am 9.3 5.7 8.4 94 0.4 NE 17 19 9 10 1017.2 - 0.0
29/03:00am 9.3 5.4 8.5 95 0.4 NE 19 20 10 11 1017.2 1017.1 0.0
29/02:30am 9.5 6.0 8.7 95 0.4 NE 17 19 9 10 1017.5 - 0.0
29/02:00am 9.6 6.1 8.7 94 0.4 NE 17 19 9 10 1017.6 - 0.0
29/01:30am 9.8 6.7 8.9 94 0.4 NE 15 17 8 9 1017.7 - 0.0
29/01:00am 10.4 8.2 9.5 94 0.5 NE 11 15 6 8 1018.0 - 0.0
29/12:30am 10.0 7.3 9.1 94 0.4 NE 13 15 7 8 1018.2 - 0.0
29/12:00am 9.9 7.2 9.0 94 0.4 ENE 13 15 7 8 1018.4 1018.3 0.0
 
Date/Time
CST
Temp
°C
App
Temp
°C
Dew
Point
Rel
Hum
%
Delta-T
°C
Wind Press
QNH
hPa
Press
MSL
hPa
Rain
since 9 am
mm
Dir
 
Spd
km/h
Gust
km/h
Spd
kts
Gust
kts
28/11:30pm 9.9 7.6 9.0 94 0.4 ENE 11 13 6 7 1018.6 - 0.0
28/11:00pm 9.8 8.4 8.7 93 0.5 NNE 6 7 3 4 1018.9 - 0.0
28/10:30pm 10.1 8.2 9.0 93 0.5 ESE 9 11 5 6 1018.9 - 0.0
28/10:00pm 10.1 9.9 9.2 94 0.5 CALM 0 0 0 0 1019.0 - 0.0
28/09:30pm 9.4 9.0 8.3 93 0.5 CALM 0 0 0 0 1019.1 - 0.0
28/09:00pm 9.8 9.5 8.6 92 0.6 CALM 0 0 0 0 1019.2 1019.1 0.0
28/08:30pm 10.0 8.6 8.8 92 0.6 SSW 6 6 3 3 1019.1 - 0.0
28/08:00pm 10.0 8.6 8.8 92 0.6 W 6 7 3 4 1018.7 - 0.0
28/07:30pm 10.7 9.3 9.5 92 0.6 WNW 7 7 4 4 1018.8 - 0.0
28/07:00pm 11.1 9.4 9.7 91 0.7 NW 9 11 5 6 1018.5 - 0.0
28/06:30pm 11.9 9.9 10.0 88 1.0 WNW 11 13 6 7 1018.5 - 0.0
28/06:00pm 12.7 10.7 10.1 84 1.3 W 11 15 6 8 1018.4 1018.3 0.0
28/05:30pm 13.6 12.4 10.2 80 1.8 W 7 11 4 6 1018.2 - 0.0
28/05:00pm 14.1 11.7 10.1 77 2.1 W 13 17 7 9 1018.0 - 0.0
28/04:30pm 15.0 11.5 10.2 73 2.5 W 19 22 10 12 1017.9 - 0.0
28/04:00pm 16.1 14.1 7.1 55 4.5 NW 7 9 4 5 1017.9 - 0.0
28/03:30pm 16.4 14.1 7.6 56 4.4 WNW 9 11 5 6 1017.9 - 0.0
28/03:00pm 16.4 14.7 7.6 56 4.4 WNW 6 9 3 5 1017.9 1017.7 0.0
28/02:30pm 16.3 15.4 7.8 57 4.3 NNE 2 6 1 3 1017.9 - 0.0
28/02:00pm 15.6 13.6 7.1 57 4.2 SE 7 11 4 6 1018.1 - 0.0
28/01:30pm 16.7 14.8 9.1 61 4.0 ESE 9 15 5 8 1018.3 - 0.0
28/01:00pm 16.2 15.3 9.2 63 3.6 ESE 4 13 2 7 1018.5 - 0.0
28/12:30pm 16.0 14.1 9.2 64 3.5 E 9 17 5 9 1018.9 - 0.0
28/12:00pm 15.5 13.0 9.6 68 3.1 SSE 13 19 7 10 1019.2 1019.1 0.0
28/11:30am 15.2 12.5 9.1 67 3.2 SE 13 20 7 11 1019.5 - 0.0
28/11:00am 14.8 11.9 9.6 71 2.7 SSE 15 19 8 10 1019.5 - 0.0
28/10:30am 14.1 11.8 10.3 78 2.0 SSE 13 20 7 11 1019.6 - 0.0
28/10:00am 13.1 11.8 9.9 81 1.7 SSW 7 15 4 8 1019.6 - 0.0
28/09:30am 12.3 10.8 10.5 89 0.9 W 9 11 5 6 1019.6 - 0.0
28/09:00am 11.1 9.7 9.7 91 0.7 WNW 7 11 4 6 1019.3 1019.2 2.8
28/08:30am 10.3 8.8 9.1 92 0.6 WNW 7 9 4 5 1019.0 - 2.8
28/08:00am 9.6 7.9 8.5 93 0.5 W 7 11 4 6 1018.7 - 2.8
28/07:30am 9.2 7.4 8.0 92 0.6 WSW 7 9 4 5 1018.5 - 2.8
28/07:00am 9.1 6.8 7.5 90 0.8 WSW 9 13 5 7 1018.3 - 2.8
28/06:30am 8.8 6.7 6.8 87 0.9 W 7 9 4 5 1017.9 - 2.8
28/06:00am 8.9 6.8 6.5 85 1.1 W 7 9 4 5 1017.7 1017.5 2.8
28/05:30am 9.6 6.7 6.7 82 1.4 W 11 13 6 7 1017.7 - 2.8
28/05:00am 9.0 6.6 6.8 86 1.0 WNW 9 11 5 6 1017.5 - 2.8
28/04:30am 8.9 6.8 6.7 86 1.0 WNW 7 9 4 5 1017.3 - 2.8
28/04:00am 9.4 6.6 6.8 84 1.2 W 11 17 6 9 1017.6 - 2.8
28/03:30am 8.9 6.1 6.9 87 0.9 WNW 11 15 6 8 1017.3 - 2.8
28/03:00am 8.7 5.5 6.8 88 0.9 W 13 17 7 9 1017.5 1017.3 2.8
28/02:30am 8.2 5.2 6.2 87 0.9 WNW 11 13 6 7 1017.0 - 2.8
28/02:00am 8.9 5.3 6.7 86 1.0 W 15 19 8 10 1016.9 - 2.8
28/01:30am 8.9 5.7 6.9 87 0.9 W 13 17 7 9 1016.8 - 2.8
28/01:00am 9.1 5.6 7.1 87 0.9 W 15 19 8 10 1016.8 - 2.8
28/12:30am 9.5 6.5 7.6 88 0.9 W 13 17 7 9 1017.2 - 2.8
28/12:00am 9.3 6.3 7.7 90 0.8 W 13 20 7 11 1017.5 1017.3 2.8

Other Formats:

Comma delimited format used in spreadsheet applications
http://www.bom.gov.au/fwo/IDS60801/IDS60801.95662.axf

JavaScript Object Notation format (JSON) in row-major order
http://www.bom.gov.au/fwo/IDS60801/IDS60801.95662.json